sensor_id;sensor_type;location;lat;lon;timestamp;P1;durP1;ratioP1;P2;durP2;ratioP2
34711;SDS011;20941;42.408;25.634;2022-09-17T00:01:15;8.73;;;3.17;;
34711;SDS011;20941;42.408;25.634;2022-09-17T00:03:41;9.88;;;3.05;;
34711;SDS011;20941;42.408;25.634;2022-09-17T00:06:08;10.55;;;2.53;;
34711;SDS011;20941;42.408;25.634;2022-09-17T00:08:34;6.53;;;2.70;;
34711;SDS011;20941;42.408;25.634;2022-09-17T00:11:10;12.13;;;2.40;;
34711;SDS011;20941;42.408;25.634;2022-09-17T00:13:36;13.75;;;2.75;;
34711;SDS011;20941;42.408;25.634;2022-09-17T00:16:02;8.45;;;2.22;;
34711;SDS011;20941;42.408;25.634;2022-09-17T00:18:27;10.18;;;2.47;;
34711;SDS011;20941;42.408;25.634;2022-09-17T00:20:52;9.30;;;2.47;;
34711;SDS011;20941;42.408;25.634;2022-09-17T00:23:18;6.40;;;2.17;;
34711;SDS011;20941;42.408;25.634;2022-09-17T00:25:43;4.80;;;2.08;;
34711;SDS011;20941;42.408;25.634;2022-09-17T00:28:09;7.32;;;2.45;;
34711;SDS011;20941;42.408;25.634;2022-09-17T00:30:37;9.32;;;2.58;;
34711;SDS011;20941;42.408;25.634;2022-09-17T00:33:03;10.60;;;2.75;;
34711;SDS011;20941;42.408;25.634;2022-09-17T00:35:30;9.20;;;2.90;;
34711;SDS011;20941;42.408;25.634;2022-09-17T00:37:56;10.57;;;2.67;;
34711;SDS011;20941;42.408;25.634;2022-09-17T00:40:21;8.00;;;2.40;;
34711;SDS011;20941;42.408;25.634;2022-09-17T00:42:46;7.73;;;2.33;;
34711;SDS011;20941;42.408;25.634;2022-09-17T00:45:11;8.82;;;2.88;;
34711;SDS011;20941;42.408;25.634;2022-09-17T00:47:41;6.32;;;2.17;;
34711;SDS011;20941;42.408;25.634;2022-09-17T00:50:13;6.97;;;2.80;;
34711;SDS011;20941;42.408;25.634;2022-09-17T00:52:43;8.77;;;3.15;;
34711;SDS011;20941;42.408;25.634;2022-09-17T00:55:15;7.05;;;2.85;;
34711;SDS011;20941;42.408;25.634;2022-09-17T00:57:41;10.95;;;4.57;;
34711;SDS011;20941;42.408;25.634;2022-09-17T01:00:10;23.40;;;7.60;;
34711;SDS011;20941;42.408;25.634;2022-09-17T01:02:37;21.83;;;10.38;;
34711;SDS011;20941;42.408;25.634;2022-09-17T01:05:02;19.63;;;11.70;;
34711;SDS011;20941;42.408;25.634;2022-09-17T01:38:26;9.23;;;3.17;;
34711;SDS011;20941;42.408;25.634;2022-09-17T01:41:36;14.40;;;3.88;;
34711;SDS011;20941;42.408;25.634;2022-09-17T01:43:44;12.13;;;4.07;;
34711;SDS011;20941;42.408;25.634;2022-09-17T01:49:03;10.38;;;3.95;;
34711;SDS011;20941;42.408;25.634;2022-09-17T01:51:33;11.15;;;3.83;;
34711;SDS011;20941;42.408;25.634;2022-09-17T01:54:05;13.55;;;4.30;;
34711;SDS011;20941;42.408;25.634;2022-09-17T01:56:39;8.20;;;3.63;;
34711;SDS011;20941;42.408;25.634;2022-09-17T01:59:09;8.75;;;3.38;;
34711;SDS011;20941;42.408;25.634;2022-09-17T02:01:36;11.38;;;3.80;;
34711;SDS011;20941;42.408;25.634;2022-09-17T02:04:10;11.05;;;3.75;;
34711;SDS011;20941;42.408;25.634;2022-09-17T02:06:37;12.52;;;4.00;;
34711;SDS011;20941;42.408;25.634;2022-09-17T02:09:27;8.10;;;3.22;;
34711;SDS011;20941;42.408;25.634;2022-09-17T02:11:55;9.45;;;3.40;;
34711;SDS011;20941;42.408;25.634;2022-09-17T02:14:34;9.95;;;4.13;;
34711;SDS011;20941;42.408;25.634;2022-09-17T02:17:03;8.35;;;3.88;;
34711;SDS011;20941;42.408;25.634;2022-09-17T02:19:31;10.75;;;3.78;;
34711;SDS011;20941;42.408;25.634;2022-09-17T02:22:00;12.02;;;3.83;;
34711;SDS011;20941;42.408;25.634;2022-09-17T02:30:10;10.95;;;3.30;;
34711;SDS011;20941;42.408;25.634;2022-09-17T02:32:35;17.13;;;3.40;;
34711;SDS011;20941;42.408;25.634;2022-09-17T02:35:00;11.30;;;3.15;;
34711;SDS011;20941;42.408;25.634;2022-09-17T02:37:26;12.17;;;3.80;;
34711;SDS011;20941;42.408;25.634;2022-09-17T02:39:51;13.70;;;3.88;;
34711;SDS011;20941;42.408;25.634;2022-09-17T02:42:27;9.25;;;3.38;;
34711;SDS011;20941;42.408;25.634;2022-09-17T03:00:21;8.07;;;3.90;;
34711;SDS011;20941;42.408;25.634;2022-09-17T03:02:51;17.15;;;5.30;;
34711;SDS011;20941;42.408;25.634;2022-09-17T03:05:17;18.15;;;8.90;;
34711;SDS011;20941;42.408;25.634;2022-09-17T03:07:44;16.92;;;10.50;;
34711;SDS011;20941;42.408;25.634;2022-09-17T03:10:09;20.65;;;9.40;;
34711;SDS011;20941;42.408;25.634;2022-09-17T03:12:34;25.58;;;13.50;;
34711;SDS011;20941;42.408;25.634;2022-09-17T03:15:00;36.00;;;13.23;;
34711;SDS011;20941;42.408;25.634;2022-09-17T03:17:25;25.80;;;12.82;;
34711;SDS011;20941;42.408;25.634;2022-09-17T03:19:50;21.60;;;8.43;;
34711;SDS011;20941;42.408;25.634;2022-09-17T03:22:16;12.40;;;6.67;;
34711;SDS011;20941;42.408;25.634;2022-09-17T03:24:41;12.98;;;5.72;;
34711;SDS011;20941;42.408;25.634;2022-09-17T03:27:06;13.07;;;5.17;;
34711;SDS011;20941;42.408;25.634;2022-09-17T03:29:31;11.55;;;5.80;;
34711;SDS011;20941;42.408;25.634;2022-09-17T03:31:57;18.03;;;6.17;;
34711;SDS011;20941;42.408;25.634;2022-09-17T03:34:23;21.92;;;6.43;;
34711;SDS011;20941;42.408;25.634;2022-09-17T03:36:48;13.88;;;6.07;;
34711;SDS011;20941;42.408;25.634;2022-09-17T03:39:13;25.25;;;7.45;;
34711;SDS011;20941;42.408;25.634;2022-09-17T03:41:39;20.73;;;6.30;;
34711;SDS011;20941;42.408;25.634;2022-09-17T03:44:04;18.10;;;6.38;;
34711;SDS011;20941;42.408;25.634;2022-09-17T03:46:30;11.80;;;5.50;;
34711;SDS011;20941;42.408;25.634;2022-09-17T03:48:55;13.47;;;5.43;;
34711;SDS011;20941;42.408;25.634;2022-09-17T03:51:20;13.97;;;5.07;;
34711;SDS011;20941;42.408;25.634;2022-09-17T03:53:46;19.92;;;5.18;;
34711;SDS011;20941;42.408;25.634;2022-09-17T03:56:11;18.07;;;5.53;;
34711;SDS011;20941;42.408;25.634;2022-09-17T03:58:36;12.53;;;6.90;;
34711;SDS011;20941;42.408;25.634;2022-09-17T04:01:02;44.17;;;25.83;;
34711;SDS011;20941;42.408;25.634;2022-09-17T04:03:28;24.33;;;14.07;;
34711;SDS011;20941;42.408;25.634;2022-09-17T04:05:54;21.88;;;6.38;;
34711;SDS011;20941;42.408;25.634;2022-09-17T04:08:19;8.45;;;4.00;;
34711;SDS011;20941;42.408;25.634;2022-09-17T04:10:45;15.63;;;5.47;;
34711;SDS011;20941;42.408;25.634;2022-09-17T04:13:10;10.25;;;4.28;;
34711;SDS011;20941;42.408;25.634;2022-09-17T04:15:36;17.88;;;6.70;;
34711;SDS011;20941;42.408;25.634;2022-09-17T04:18:01;33.40;;;16.42;;
34711;SDS011;20941;42.408;25.634;2022-09-17T04:20:26;38.78;;;18.85;;
34711;SDS011;20941;42.408;25.634;2022-09-17T04:22:52;13.05;;;6.07;;
34711;SDS011;20941;42.408;25.634;2022-09-17T04:25:17;13.68;;;4.50;;
34711;SDS011;20941;42.408;25.634;2022-09-17T04:27:43;17.15;;;5.55;;
34711;SDS011;20941;42.408;25.634;2022-09-17T04:30:08;11.23;;;4.07;;
34711;SDS011;20941;42.408;25.634;2022-09-17T04:32:34;11.55;;;4.10;;
34711;SDS011;20941;42.408;25.634;2022-09-17T04:34:59;11.10;;;4.03;;
34711;SDS011;20941;42.408;25.634;2022-09-17T04:37:25;11.17;;;4.23;;
34711;SDS011;20941;42.408;25.634;2022-09-17T04:39:50;12.85;;;4.30;;
34711;SDS011;20941;42.408;25.634;2022-09-17T04:42:16;13.48;;;5.07;;
34711;SDS011;20941;42.408;25.634;2022-09-17T04:44:41;26.55;;;15.48;;
34711;SDS011;20941;42.408;25.634;2022-09-17T04:47:06;30.65;;;16.50;;
34711;SDS011;20941;42.408;25.634;2022-09-17T04:49:32;30.88;;;19.40;;
34711;SDS011;20941;42.408;25.634;2022-09-17T04:52:01;37.95;;;18.65;;
34711;SDS011;20941;42.408;25.634;2022-09-17T04:54:26;32.55;;;17.38;;
34711;SDS011;20941;42.408;25.634;2022-09-17T04:56:51;22.55;;;9.05;;
34711;SDS011;20941;42.408;25.634;2022-09-17T04:59:17;19.20;;;8.07;;
34711;SDS011;20941;42.408;25.634;2022-09-17T05:01:42;21.92;;;9.90;;
34711;SDS011;20941;42.408;25.634;2022-09-17T05:04:08;23.70;;;9.48;;
34711;SDS011;20941;42.408;25.634;2022-09-17T05:06:33;31.98;;;8.80;;
34711;SDS011;20941;42.408;25.634;2022-09-17T05:08:58;16.55;;;5.10;;
34711;SDS011;20941;42.408;25.634;2022-09-17T05:11:24;11.45;;;4.53;;
34711;SDS011;20941;42.408;25.634;2022-09-17T05:13:49;17.52;;;5.65;;
34711;SDS011;20941;42.408;25.634;2022-09-17T05:16:14;24.27;;;9.00;;
34711;SDS011;20941;42.408;25.634;2022-09-17T05:18:40;19.42;;;7.60;;
34711;SDS011;20941;42.408;25.634;2022-09-17T05:21:05;22.20;;;10.87;;
34711;SDS011;20941;42.408;25.634;2022-09-17T05:23:30;36.65;;;15.55;;
34711;SDS011;20941;42.408;25.634;2022-09-17T05:25:59;24.57;;;8.93;;
34711;SDS011;20941;42.408;25.634;2022-09-17T05:28:24;26.05;;;14.80;;
34711;SDS011;20941;42.408;25.634;2022-09-17T05:30:50;19.63;;;9.48;;
34711;SDS011;20941;42.408;25.634;2022-09-17T05:33:15;17.07;;;7.40;;
34711;SDS011;20941;42.408;25.634;2022-09-17T05:35:40;10.43;;;4.35;;
34711;SDS011;20941;42.408;25.634;2022-09-17T05:38:08;16.05;;;4.53;;
34711;SDS011;20941;42.408;25.634;2022-09-17T05:40:33;14.03;;;4.13;;
34711;SDS011;20941;42.408;25.634;2022-09-17T05:42:59;37.35;;;5.78;;
34711;SDS011;20941;42.408;25.634;2022-09-17T05:45:25;15.52;;;4.00;;
34711;SDS011;20941;42.408;25.634;2022-09-17T05:47:56;12.73;;;4.05;;
34711;SDS011;20941;42.408;25.634;2022-09-17T05:50:22;11.77;;;3.90;;
34711;SDS011;20941;42.408;25.634;2022-09-17T05:52:48;12.77;;;3.83;;
34711;SDS011;20941;42.408;25.634;2022-09-17T05:55:13;8.88;;;3.72;;
34711;SDS011;20941;42.408;25.634;2022-09-17T05:57:38;9.70;;;3.53;;
34711;SDS011;20941;42.408;25.634;2022-09-17T06:00:03;8.67;;;3.47;;
34711;SDS011;20941;42.408;25.634;2022-09-17T06:02:29;12.05;;;4.20;;
34711;SDS011;20941;42.408;25.634;2022-09-17T06:04:54;15.93;;;3.83;;
34711;SDS011;20941;42.408;25.634;2022-09-17T06:07:20;16.88;;;4.45;;
34711;SDS011;20941;42.408;25.634;2022-09-17T06:09:45;9.03;;;4.40;;
34711;SDS011;20941;42.408;25.634;2022-09-17T06:12:10;17.85;;;4.95;;
34711;SDS011;20941;42.408;25.634;2022-09-17T06:14:36;13.88;;;4.28;;
34711;SDS011;20941;42.408;25.634;2022-09-17T06:17:01;14.35;;;4.07;;
34711;SDS011;20941;42.408;25.634;2022-09-17T06:19:27;28.25;;;4.20;;
34711;SDS011;20941;42.408;25.634;2022-09-17T06:21:52;30.35;;;6.38;;
34711;SDS011;20941;42.408;25.634;2022-09-17T06:24:17;21.85;;;5.38;;
34711;SDS011;20941;42.408;25.634;2022-09-17T06:26:43;18.00;;;4.17;;
34711;SDS011;20941;42.408;25.634;2022-09-17T06:29:08;24.20;;;5.10;;
34711;SDS011;20941;42.408;25.634;2022-09-17T06:31:33;71.82;;;7.88;;
34711;SDS011;20941;42.408;25.634;2022-09-17T06:33:59;21.87;;;4.87;;
34711;SDS011;20941;42.408;25.634;2022-09-17T06:36:24;11.73;;;4.53;;
34711;SDS011;20941;42.408;25.634;2022-09-17T06:38:49;27.63;;;5.68;;
34711;SDS011;20941;42.408;25.634;2022-09-17T06:41:15;47.33;;;6.30;;
34711;SDS011;20941;42.408;25.634;2022-09-17T06:43:41;130.20;;;13.32;;
34711;SDS011;20941;42.408;25.634;2022-09-17T06:46:06;56.95;;;6.95;;
34711;SDS011;20941;42.408;25.634;2022-09-17T06:48:33;11.52;;;4.38;;
34711;SDS011;20941;42.408;25.634;2022-09-17T06:51:03;12.00;;;4.35;;
34711;SDS011;20941;42.408;25.634;2022-09-17T06:53:28;16.67;;;5.25;;
34711;SDS011;20941;42.408;25.634;2022-09-17T06:55:55;10.75;;;4.72;;
34711;SDS011;20941;42.408;25.634;2022-09-17T06:58:20;20.45;;;5.72;;
34711;SDS011;20941;42.408;25.634;2022-09-17T07:00:46;16.15;;;5.20;;
34711;SDS011;20941;42.408;25.634;2022-09-17T07:03:12;21.73;;;7.15;;
34711;SDS011;20941;42.408;25.634;2022-09-17T07:05:37;20.40;;;5.03;;
34711;SDS011;20941;42.408;25.634;2022-09-17T07:08:02;9.57;;;4.70;;
34711;SDS011;20941;42.408;25.634;2022-09-17T07:10:28;17.33;;;5.65;;
34711;SDS011;20941;42.408;25.634;2022-09-17T07:12:53;7.68;;;4.25;;
34711;SDS011;20941;42.408;25.634;2022-09-17T07:15:19;14.03;;;5.03;;
34711;SDS011;20941;42.408;25.634;2022-09-17T07:17:44;10.45;;;4.65;;
34711;SDS011;20941;42.408;25.634;2022-09-17T07:20:11;7.80;;;4.68;;
34711;SDS011;20941;42.408;25.634;2022-09-17T07:22:36;9.85;;;4.68;;
34711;SDS011;20941;42.408;25.634;2022-09-17T07:25:02;7.95;;;4.47;;
34711;SDS011;20941;42.408;25.634;2022-09-17T07:27:27;29.65;;;6.47;;
34711;SDS011;20941;42.408;25.634;2022-09-17T07:29:53;10.30;;;5.10;;
34711;SDS011;20941;42.408;25.634;2022-09-17T07:32:18;17.20;;;5.05;;
34711;SDS011;20941;42.408;25.634;2022-09-17T07:34:44;8.40;;;5.38;;
34711;SDS011;20941;42.408;25.634;2022-09-17T07:37:09;14.63;;;5.27;;
34711;SDS011;20941;42.408;25.634;2022-09-17T07:39:35;10.40;;;4.53;;
34711;SDS011;20941;42.408;25.634;2022-09-17T07:42:00;18.05;;;5.28;;
34711;SDS011;20941;42.408;25.634;2022-09-17T07:44:27;12.55;;;4.90;;
34711;SDS011;20941;42.408;25.634;2022-09-17T07:46:53;13.52;;;4.75;;
34711;SDS011;20941;42.408;25.634;2022-09-17T07:49:18;15.23;;;5.07;;
34711;SDS011;20941;42.408;25.634;2022-09-17T07:51:43;20.38;;;5.82;;
34711;SDS011;20941;42.408;25.634;2022-09-17T07:54:09;13.87;;;4.73;;
34711;SDS011;20941;42.408;25.634;2022-09-17T07:56:35;7.57;;;4.47;;
34711;SDS011;20941;42.408;25.634;2022-09-17T07:59:01;11.55;;;4.38;;
34711;SDS011;20941;42.408;25.634;2022-09-17T08:01:26;16.30;;;4.90;;
34711;SDS011;20941;42.408;25.634;2022-09-17T08:03:52;11.73;;;4.53;;
34711;SDS011;20941;42.408;25.634;2022-09-17T08:06:24;14.88;;;4.60;;
34711;SDS011;20941;42.408;25.634;2022-09-17T08:08:50;11.63;;;4.22;;
34711;SDS011;20941;42.408;25.634;2022-09-17T08:11:23;10.30;;;4.38;;
34711;SDS011;20941;42.408;25.634;2022-09-17T08:13:49;11.57;;;4.45;;
34711;SDS011;20941;42.408;25.634;2022-09-17T08:16:15;6.85;;;4.32;;
34711;SDS011;20941;42.408;25.634;2022-09-17T08:18:41;12.57;;;5.35;;
34711;SDS011;20941;42.408;25.634;2022-09-17T08:21:08;39.10;;;9.23;;
34711;SDS011;20941;42.408;25.634;2022-09-17T08:23:35;14.15;;;5.47;;
34711;SDS011;20941;42.408;25.634;2022-09-17T08:26:00;21.95;;;6.20;;
34711;SDS011;20941;42.408;25.634;2022-09-17T08:28:27;10.07;;;4.85;;
34711;SDS011;20941;42.408;25.634;2022-09-17T08:30:52;14.55;;;4.50;;
34711;SDS011;20941;42.408;25.634;2022-09-17T08:33:18;5.95;;;4.20;;
34711;SDS011;20941;42.408;25.634;2022-09-17T08:35:53;17.73;;;5.90;;
34711;SDS011;20941;42.408;25.634;2022-09-17T08:38:19;12.05;;;4.65;;
34711;SDS011;20941;42.408;25.634;2022-09-17T08:43:47;14.25;;;5.28;;
34711;SDS011;20941;42.408;25.634;2022-09-17T08:46:14;7.57;;;4.80;;
34711;SDS011;20941;42.408;25.634;2022-09-17T08:48:49;29.23;;;8.07;;
34711;SDS011;20941;42.408;25.634;2022-09-17T08:56:44;72.32;;;10.32;;
34711;SDS011;20941;42.408;25.634;2022-09-17T09:01:59;9.18;;;4.55;;
34711;SDS011;20941;42.408;25.634;2022-09-17T09:04:48;11.93;;;4.80;;
34711;SDS011;20941;42.408;25.634;2022-09-17T09:07:19;11.05;;;4.15;;
34711;SDS011;20941;42.408;25.634;2022-09-17T09:12:38;16.63;;;5.10;;
34711;SDS011;20941;42.408;25.634;2022-09-17T09:17:35;9.65;;;4.40;;
34711;SDS011;20941;42.408;25.634;2022-09-17T09:20:02;7.70;;;4.15;;
34711;SDS011;20941;42.408;25.634;2022-09-17T09:27:32;14.63;;;3.83;;
34711;SDS011;20941;42.408;25.634;2022-09-17T09:37:58;9.63;;;3.80;;
34711;SDS011;20941;42.408;25.634;2022-09-17T09:51:15;8.20;;;3.75;;
34711;SDS011;20941;42.408;25.634;2022-09-17T09:53:47;14.50;;;5.13;;
34711;SDS011;20941;42.408;25.634;2022-09-17T09:58:50;9.70;;;3.80;;
34711;SDS011;20941;42.408;25.634;2022-09-17T10:01:16;10.60;;;4.17;;
34711;SDS011;20941;42.408;25.634;2022-09-17T10:03:44;8.52;;;3.72;;
34711;SDS011;20941;42.408;25.634;2022-09-17T10:06:10;6.05;;;3.22;;
34711;SDS011;20941;42.408;25.634;2022-09-17T10:08:37;13.70;;;4.20;;
34711;SDS011;20941;42.408;25.634;2022-09-17T10:11:03;9.10;;;3.47;;
34711;SDS011;20941;42.408;25.634;2022-09-17T10:13:33;5.43;;;3.40;;
34711;SDS011;20941;42.408;25.634;2022-09-17T10:18:46;14.37;;;4.63;;
34711;SDS011;20941;42.408;25.634;2022-09-17T10:23:43;14.65;;;3.80;;
34711;SDS011;20941;42.408;25.634;2022-09-17T10:26:18;6.18;;;3.13;;
34711;SDS011;20941;42.408;25.634;2022-09-17T10:28:46;10.80;;;3.60;;
34711;SDS011;20941;42.408;25.634;2022-09-17T10:31:13;6.32;;;2.88;;
34711;SDS011;20941;42.408;25.634;2022-09-17T10:33:47;34.40;;;5.55;;
34711;SDS011;20941;42.408;25.634;2022-09-17T10:36:14;5.80;;;2.90;;
34711;SDS011;20941;42.408;25.634;2022-09-17T10:38:40;14.13;;;3.17;;
34711;SDS011;20941;42.408;25.634;2022-09-17T10:43:37;7.30;;;3.22;;
34711;SDS011;20941;42.408;25.634;2022-09-17T10:46:02;10.98;;;3.35;;
34711;SDS011;20941;42.408;25.634;2022-09-17T10:48:31;7.90;;;2.97;;
34711;SDS011;20941;42.408;25.634;2022-09-17T10:50:58;11.60;;;3.35;;
34711;SDS011;20941;42.408;25.634;2022-09-17T10:53:25;7.45;;;3.33;;
34711;SDS011;20941;42.408;25.634;2022-09-17T10:56:00;33.97;;;5.38;;
34711;SDS011;20941;42.408;25.634;2022-09-17T11:01:06;7.07;;;3.10;;
34711;SDS011;20941;42.408;25.634;2022-09-17T11:11:34;4.90;;;2.80;;
34711;SDS011;20941;42.408;25.634;2022-09-17T11:21:48;13.07;;;3.45;;
34711;SDS011;20941;42.408;25.634;2022-09-17T11:34:45;10.13;;;3.28;;
34711;SDS011;20941;42.408;25.634;2022-09-17T11:37:22;10.40;;;3.53;;
34711;SDS011;20941;42.408;25.634;2022-09-17T11:39:52;11.38;;;4.32;;
34711;SDS011;20941;42.408;25.634;2022-09-17T11:42:23;8.73;;;3.50;;
34711;SDS011;20941;42.408;25.634;2022-09-17T11:44:53;121.47;;;16.27;;
34711;SDS011;20941;42.408;25.634;2022-09-17T11:47:22;14.50;;;3.85;;
34711;SDS011;20941;42.408;25.634;2022-09-17T11:49:49;6.15;;;2.72;;
34711;SDS011;20941;42.408;25.634;2022-09-17T11:52:18;6.65;;;2.35;;
34711;SDS011;20941;42.408;25.634;2022-09-17T11:54:54;11.85;;;2.83;;
34711;SDS011;20941;42.408;25.634;2022-09-17T11:57:38;5.43;;;2.45;;
34711;SDS011;20941;42.408;25.634;2022-09-17T12:05:04;16.33;;;1.92;;
34711;SDS011;20941;42.408;25.634;2022-09-17T12:07:39;10.68;;;2.08;;
34711;SDS011;20941;42.408;25.634;2022-09-17T12:12:41;8.00;;;2.67;;
34711;SDS011;20941;42.408;25.634;2022-09-17T12:15:13;19.17;;;3.90;;
34711;SDS011;20941;42.408;25.634;2022-09-17T12:17:41;3.58;;;2.17;;
34711;SDS011;20941;42.408;25.634;2022-09-17T12:20:12;26.00;;;14.02;;
34711;SDS011;20941;42.408;25.634;2022-09-17T12:22:42;11.73;;;5.32;;
34711;SDS011;20941;42.408;25.634;2022-09-17T12:25:10;19.13;;;8.02;;
34711;SDS011;20941;42.408;25.634;2022-09-17T12:32:45;13.67;;;5.03;;
34711;SDS011;20941;42.408;25.634;2022-09-17T12:37:42;8.02;;;4.32;;
34711;SDS011;20941;42.408;25.634;2022-09-17T12:40:22;5.70;;;2.35;;
34711;SDS011;20941;42.408;25.634;2022-09-17T12:45:30;4.80;;;2.92;;
34711;SDS011;20941;42.408;25.634;2022-09-17T12:58:16;8.07;;;2.20;;
34711;SDS011;20941;42.408;25.634;2022-09-17T13:00:47;5.78;;;2.30;;
34711;SDS011;20941;42.408;25.634;2022-09-17T13:18:56;5.47;;;1.58;;
34711;SDS011;20941;42.408;25.634;2022-09-17T13:21:24;1.58;;;0.50;;
34711;SDS011;20941;42.408;25.634;2022-09-17T13:23:54;0.93;;;0.60;;
34711;SDS011;20941;42.408;25.634;2022-09-17T13:26:21;3.05;;;1.50;;
34711;SDS011;20941;42.408;25.634;2022-09-17T13:28:56;1.48;;;0.30;;
34711;SDS011;20941;42.408;25.634;2022-09-17T13:31:45;0.95;;;0.30;;
34711;SDS011;20941;42.408;25.634;2022-09-17T13:39:09;5.43;;;0.63;;
34711;SDS011;20941;42.408;25.634;2022-09-17T13:41:35;3.97;;;0.85;;
34711;SDS011;20941;42.408;25.634;2022-09-17T13:44:04;5.00;;;0.57;;
34711;SDS011;20941;42.408;25.634;2022-09-17T13:46:30;5.53;;;1.23;;
34711;SDS011;20941;42.408;25.634;2022-09-17T13:49:02;1.02;;;0.35;;
34711;SDS011;20941;42.408;25.634;2022-09-17T13:53:54;2.13;;;0.50;;
34711;SDS011;20941;42.408;25.634;2022-09-17T13:57:02;0.30;;;0.30;;
34711;SDS011;20941;42.408;25.634;2022-09-17T13:59:17;0.88;;;0.20;;
34711;SDS011;20941;42.408;25.634;2022-09-17T14:01:59;0.40;;;0.30;;
34711;SDS011;20941;42.408;25.634;2022-09-17T14:07:51;2.83;;;0.50;;
34711;SDS011;20941;42.408;25.634;2022-09-17T14:15:01;7.50;;;0.60;;
34711;SDS011;20941;42.408;25.634;2022-09-17T14:17:47;4.33;;;0.40;;
34711;SDS011;20941;42.408;25.634;2022-09-17T14:20:12;3.35;;;0.30;;
34711;SDS011;20941;42.408;25.634;2022-09-17T14:22:37;3.92;;;0.43;;
34711;SDS011;20941;42.408;25.634;2022-09-17T14:25:02;5.57;;;0.70;;
34711;SDS011;20941;42.408;25.634;2022-09-17T14:30:17;0.85;;;0.43;;
34711;SDS011;20941;42.408;25.634;2022-09-17T14:43:38;0.30;;;0.20;;
34711;SDS011;20941;42.408;25.634;2022-09-17T14:46:05;6.95;;;0.73;;
34711;SDS011;20941;42.408;25.634;2022-09-17T14:48:32;5.43;;;0.65;;
34711;SDS011;20941;42.408;25.634;2022-09-17T14:56:57;2.55;;;0.40;;
34711;SDS011;20941;42.408;25.634;2022-09-17T15:04:50;0.65;;;0.28;;
34711;SDS011;20941;42.408;25.634;2022-09-17T15:07:16;5.93;;;0.63;;
34711;SDS011;20941;42.408;25.634;2022-09-17T15:09:41;5.73;;;0.30;;
34711;SDS011;20941;42.408;25.634;2022-09-17T15:12:06;2.13;;;0.37;;
34711;SDS011;20941;42.408;25.634;2022-09-17T15:14:32;2.72;;;0.47;;
34711;SDS011;20941;42.408;25.634;2022-09-17T15:16:59;2.13;;;0.45;;
34711;SDS011;20941;42.408;25.634;2022-09-17T15:22:11;2.25;;;0.43;;
34711;SDS011;20941;42.408;25.634;2022-09-17T15:27:04;2.83;;;0.40;;
34711;SDS011;20941;42.408;25.634;2022-09-17T15:29:32;1.23;;;0.32;;
34711;SDS011;20941;42.408;25.634;2022-09-17T15:32:01;0.90;;;0.20;;
34711;SDS011;20941;42.408;25.634;2022-09-17T15:34:26;0.82;;;0.30;;
34711;SDS011;20941;42.408;25.634;2022-09-17T15:39:37;0.65;;;0.38;;
34711;SDS011;20941;42.408;25.634;2022-09-17T15:42:03;2.92;;;0.40;;
34711;SDS011;20941;42.408;25.634;2022-09-17T15:44:28;0.40;;;0.20;;
34711;SDS011;20941;42.408;25.634;2022-09-17T15:46:54;8.10;;;0.77;;
34711;SDS011;20941;42.408;25.634;2022-09-17T15:49:38;1.77;;;0.47;;
34711;SDS011;20941;42.408;25.634;2022-09-17T15:54:48;0.73;;;0.50;;
34711;SDS011;20941;42.408;25.634;2022-09-17T15:57:13;1.00;;;0.40;;
34711;SDS011;20941;42.408;25.634;2022-09-17T15:59:39;1.50;;;0.60;;
34711;SDS011;20941;42.408;25.634;2022-09-17T16:02:08;4.43;;;0.60;;
34711;SDS011;20941;42.408;25.634;2022-09-17T16:04:48;2.03;;;0.60;;
34711;SDS011;20941;42.408;25.634;2022-09-17T16:07:27;5.18;;;0.77;;
34711;SDS011;20941;42.408;25.634;2022-09-17T16:09:53;3.13;;;0.50;;
34711;SDS011;20941;42.408;25.634;2022-09-17T16:12:19;1.02;;;0.50;;
34711;SDS011;20941;42.408;25.634;2022-09-17T16:14:46;2.38;;;0.77;;
34711;SDS011;20941;42.408;25.634;2022-09-17T16:19:46;1.77;;;1.17;;
34711;SDS011;20941;42.408;25.634;2022-09-17T16:22:11;0.80;;;0.77;;
34711;SDS011;20941;42.408;25.634;2022-09-17T16:24:36;1.33;;;1.07;;
34711;SDS011;20941;42.408;25.634;2022-09-17T16:27:02;1.75;;;0.77;;
34711;SDS011;20941;42.408;25.634;2022-09-17T16:29:28;2.25;;;1.38;;
34711;SDS011;20941;42.408;25.634;2022-09-17T16:31:53;1.63;;;0.68;;
34711;SDS011;20941;42.408;25.634;2022-09-17T16:34:21;0.10;;;0.10;;
34711;SDS011;20941;42.408;25.634;2022-09-17T16:36:55;0.00;;;0.00;;
34711;SDS011;20941;42.408;25.634;2022-09-17T16:39:20;0.00;;;0.00;;
34711;SDS011;20941;42.408;25.634;2022-09-17T16:41:46;0.00;;;0.00;;
34711;SDS011;20941;42.408;25.634;2022-09-17T16:44:11;0.00;;;0.00;;
34711;SDS011;20941;42.408;25.634;2022-09-17T16:46:36;0.00;;;0.00;;
34711;SDS011;20941;42.408;25.634;2022-09-17T16:49:01;2.57;;;0.93;;
34711;SDS011;20941;42.408;25.634;2022-09-17T16:51:27;0.08;;;0.08;;
34711;SDS011;20941;42.408;25.634;2022-09-17T16:53:52;0.30;;;0.30;;
34711;SDS011;20941;42.408;25.634;2022-09-17T16:56:18;0.85;;;0.38;;
34711;SDS011;20941;42.408;25.634;2022-09-17T16:58:43;0.00;;;0.00;;
34711;SDS011;20941;42.408;25.634;2022-09-17T17:01:09;0.00;;;0.00;;
34711;SDS011;20941;42.408;25.634;2022-09-17T17:03:35;0.00;;;0.00;;
34711;SDS011;20941;42.408;25.634;2022-09-17T17:06:00;0.00;;;0.00;;
34711;SDS011;20941;42.408;25.634;2022-09-17T17:08:30;0.00;;;0.00;;
34711;SDS011;20941;42.408;25.634;2022-09-17T17:10:55;0.00;;;0.00;;
34711;SDS011;20941;42.408;25.634;2022-09-17T17:13:20;0.00;;;0.00;;
34711;SDS011;20941;42.408;25.634;2022-09-17T17:15:46;1.15;;;0.95;;
34711;SDS011;20941;42.408;25.634;2022-09-17T17:18:11;0.00;;;0.00;;
34711;SDS011;20941;42.408;25.634;2022-09-17T17:20:36;0.00;;;0.00;;
34711;SDS011;20941;42.408;25.634;2022-09-17T17:23:01;0.00;;;0.00;;
34711;SDS011;20941;42.408;25.634;2022-09-17T17:25:28;0.00;;;0.00;;
34711;SDS011;20941;42.408;25.634;2022-09-17T17:27:54;1.27;;;0.70;;
34711;SDS011;20941;42.408;25.634;2022-09-17T17:30:19;0.00;;;0.00;;
34711;SDS011;20941;42.408;25.634;2022-09-17T17:32:48;0.00;;;0.00;;
34711;SDS011;20941;42.408;25.634;2022-09-17T17:35:13;0.70;;;0.70;;
34711;SDS011;20941;42.408;25.634;2022-09-17T17:37:39;0.00;;;0.00;;
34711;SDS011;20941;42.408;25.634;2022-09-17T17:40:05;0.00;;;0.00;;
34711;SDS011;20941;42.408;25.634;2022-09-17T17:42:34;0.80;;;0.45;;
34711;SDS011;20941;42.408;25.634;2022-09-17T17:45:02;0.00;;;0.00;;
34711;SDS011;20941;42.408;25.634;2022-09-17T17:47:27;0.03;;;0.03;;
34711;SDS011;20941;42.408;25.634;2022-09-17T17:49:53;1.50;;;0.43;;
34711;SDS011;20941;42.408;25.634;2022-09-17T17:52:18;0.00;;;0.00;;
34711;SDS011;20941;42.408;25.634;2022-09-17T17:54:43;0.00;;;0.00;;
34711;SDS011;20941;42.408;25.634;2022-09-17T17:57:08;0.77;;;0.60;;
34711;SDS011;20941;42.408;25.634;2022-09-17T17:59:35;0.15;;;0.15;;
34711;SDS011;20941;42.408;25.634;2022-09-17T18:02:00;0.00;;;0.00;;
34711;SDS011;20941;42.408;25.634;2022-09-17T18:04:26;0.00;;;0.00;;
34711;SDS011;20941;42.408;25.634;2022-09-17T18:06:51;1.10;;;0.63;;
34711;SDS011;20941;42.408;25.634;2022-09-17T18:09:16;0.00;;;0.00;;
34711;SDS011;20941;42.408;25.634;2022-09-17T18:11:41;0.00;;;0.00;;
34711;SDS011;20941;42.408;25.634;2022-09-17T18:14:08;0.00;;;0.00;;
34711;SDS011;20941;42.408;25.634;2022-09-17T18:16:35;0.30;;;0.30;;
34711;SDS011;20941;42.408;25.634;2022-09-17T18:19:02;0.00;;;0.00;;